Time;durP1;ratioP1;P1;durP2;ratioP2;P2;SDS_P1;SDS_P2;PMS_P1;PMS_P2;Temp;Humidity;BMP_temperature;BMP_pressure;BME280_temperature;BME280_humidity;BME280_pressure;Samples;Min_cycle;Max_cycle;Signal;HPM_P1;HPM_P2
2023/04/18 00:02:09;;;;;;;1.17;0.77;;;5.50;99.90;;;;;;20738213;28;20107;-52
2023/04/18 00:12:11;;;;;;;1.52;1.02;;;5.30;99.90;;;;;;20738620;28;20034;-49
2023/04/18 00:22:15;;;;;;;1.45;0.90;;;5.30;99.90;;;;;;20737925;28;20116;-63
2023/04/18 00:32:18;;;;;;;1.00;0.70;;;5.10;99.90;;;;;;20740920;28;20491;-52
2023/04/18 00:42:20;;;;;;;1.25;0.65;;;4.90;99.90;;;;;;20751057;28;20030;-63
2023/04/18 00:52:25;;;;;;;1.98;0.50;;;4.80;99.90;;;;;;20751066;28;20100;-53
2023/04/18 01:02:30;;;;;;;0.90;0.60;;;5.00;99.90;;;;;;20749449;28;20121;-64
2023/04/18 01:12:32;;;;;;;0.82;0.50;;;5.20;99.90;;;;;;20750181;28;20057;-52
2023/04/18 01:22:33;;;;;;;1.10;0.47;;;5.30;99.90;;;;;;20748179;28;20025;-63
2023/04/18 01:32:35;;;;;;;0.75;0.45;;;5.00;99.90;;;;;;20749714;28;20033;-53
2023/04/18 01:42:37;;;;;;;0.60;0.32;;;4.70;99.90;;;;;;20745909;28;20038;-62
2023/04/18 01:52:39;;;;;;;1.25;0.50;;;4.50;99.90;;;;;;20745425;28;20046;-63
2023/04/18 02:02:40;;;;;;;0.65;0.30;;;4.50;99.90;;;;;;20745968;28;20033;-63
2023/04/18 02:12:42;;;;;;;0.65;0.20;;;4.80;99.90;;;;;;20745321;28;20391;-63
2023/04/18 02:22:45;;;;;;;0.32;0.20;;;4.70;99.90;;;;;;20727208;28;20037;-63
2023/04/18 02:32:50;;;;;;;0.85;0.30;;;4.80;99.90;;;;;;20743741;28;20033;-63
2023/04/18 02:42:52;;;;;;;0.38;0.17;;;4.90;99.90;;;;;;20743690;28;20141;-52
2023/04/18 02:52:54;;;;;;;0.30;0.20;;;4.60;99.90;;;;;;20742204;28;20034;-50
2023/04/18 03:02:59;;;;;;;0.30;0.20;;;4.00;99.90;;;;;;20740682;28;20545;-62
2023/04/18 03:13:10;;;;;;;0.30;0.20;;;3.50;99.90;;;;;;20739903;28;20104;-62
2023/04/18 03:23:13;;;;;;;0.17;0.15;;;3.70;99.90;;;;;;20739031;28;20037;-52
2023/04/18 03:33:16;;;;;;;0.30;0.20;;;4.00;99.90;;;;;;20739940;28;20022;-52
2023/04/18 03:43:19;;;;;;;1.90;0.20;;;4.40;99.90;;;;;;20739627;28;20092;-52
2023/04/18 03:53:21;;;;;;;0.32;0.15;;;4.50;99.90;;;;;;20737816;28;20030;-52
2023/04/18 04:03:23;;;;;;;0.55;0.20;;;4.60;99.90;;;;;;20737603;28;20033;-51
2023/04/18 04:13:25;;;;;;;0.40;0.17;;;4.80;99.90;;;;;;20750591;28;20060;-52
2023/04/18 04:23:27;;;;;;;0.20;0.10;;;4.80;99.90;;;;;;20713540;28;20038;-51
2023/04/18 04:33:32;;;;;;;0.30;0.20;;;4.70;99.90;;;;;;20735462;28;20038;-62
2023/04/18 04:43:36;;;;;;;0.17;0.15;;;4.50;99.90;;;;;;20747638;28;20029;-52
2023/04/18 04:53:39;;;;;;;1.05;0.20;;;4.40;99.90;;;;;;20751264;28;20034;-51
2023/04/18 05:03:41;;;;;;;0.40;0.22;;;4.50;99.90;;;;;;20749906;28;20545;-52
2023/04/18 05:13:43;;;;;;;0.35;0.20;;;4.60;99.90;;;;;;20750190;28;20399;-53
2023/04/18 05:23:45;;;;;;;0.25;0.20;;;4.60;99.90;;;;;;20748410;28;20033;-49
2023/04/18 05:33:46;;;;;;;0.20;0.20;;;4.60;99.90;;;;;;20748425;28;20080;-52
2023/04/18 05:43:49;;;;;;;0.60;0.20;;;4.70;99.90;;;;;;20748863;28;20088;-52
2023/04/18 05:53:51;;;;;;;0.60;0.20;;;4.90;99.90;;;;;;20746932;28;20030;-51
2023/04/18 06:03:53;;;;;;;0.63;0.30;;;5.00;99.70;;;;;;20746243;28;20030;-52
2023/04/18 06:13:55;;;;;;;0.30;0.20;;;5.40;99.40;;;;;;20743931;28;20041;-51
2023/04/18 06:23:56;;;;;;;1.38;0.30;;;5.80;98.70;;;;;;20744417;28;20069;-51
2023/04/18 06:33:58;;;;;;;0.20;0.20;;;6.20;97.90;;;;;;20743471;28;20038;-63
2023/04/18 06:43:59;;;;;;;0.63;0.20;;;6.30;97.20;;;;;;20739934;28;20087;-54
2023/04/18 06:54:01;;;;;;;0.65;0.32;;;7.00;96.70;;;;;;20742438;28;20034;-53
2023/04/18 07:04:03;;;;;;;0.20;0.20;;;8.40;92.90;;;;;;20741602;28;20029;-53
2023/04/18 07:14:04;;;;;;;0.20;0.20;;;8.30;92.30;;;;;;20741635;28;20090;-52
2023/04/18 07:24:06;;;;;;;0.60;0.30;;;8.40;92.50;;;;;;20740951;28;20041;-53
2023/04/18 07:34:08;;;;;;;0.20;0.20;;;8.50;92.80;;;;;;20737161;28;20108;-52
2023/04/18 07:44:10;;;;;;;1.05;0.20;;;8.60;93.10;;;;;;20738917;28;20037;-49
2023/04/18 07:54:11;;;;;;;0.30;0.20;;;8.90;93.10;;;;;;20739692;28;20029;-52
2023/04/18 08:04:13;;;;;;;0.73;0.30;;;9.20;93.20;;;;;;20739063;28;20491;-51
2023/04/18 08:14:15;;;;;;;0.80;0.30;;;9.50;92.10;;;;;;20738527;28;20041;-51
2023/04/18 08:24:16;;;;;;;0.77;0.30;;;10.00;92.60;;;;;;20737615;28;20042;-50
2023/04/18 08:34:18;;;;;;;0.30;0.30;;;10.50;91.20;;;;;;20734335;28;20502;-51
2023/04/18 08:44:20;;;;;;;0.40;0.22;;;11.80;86.10;;;;;;20752241;28;20437;-51
2023/04/18 08:54:22;;;;;;;0.30;0.20;;;12.10;85.90;;;;;;20739929;28;20030;-49
2023/04/18 09:04:52;;;;;;;0.30;0.30;;;12.10;83.00;;;;;;20748905;28;20037;-59
2023/04/18 09:15:11;;;;;;;1.75;0.47;;;12.70;83.40;;;;;;20750357;28;20402;-51
2023/04/18 09:25:38;;;;;;;0.70;0.60;;;13.00;83.90;;;;;;20749333;28;20042;-51
2023/04/18 09:35:40;;;;;;;0.73;0.50;;;13.40;87.90;;;;;;20748717;28;20064;-52
2023/04/18 09:45:43;;;;;;;2.47;0.47;;;14.30;87.10;;;;;;20747485;28;20030;-52
2023/04/18 09:55:46;;;;;;;0.40;0.40;;;14.80;84.00;;;;;;20746396;28;20030;-50
2023/04/18 10:05:48;;;;;;;1.55;0.40;;;15.90;85.00;;;;;;20746209;28;20534;-63
2023/04/18 10:15:51;;;;;;;0.70;0.30;;;15.90;79.20;;;;;;20745599;28;20095;-63
2023/04/18 10:25:52;;;;;;;0.73;0.50;;;16.00;82.40;;;;;;20744514;28;20030;-63
2023/04/18 10:36:05;;;;;;;1.30;0.50;;;16.40;79.90;;;;;;20744229;28;20030;-49
2023/04/18 10:46:10;;;;;;;1.80;0.43;;;16.40;80.80;;;;;;20744737;28;20521;-63
2023/04/18 10:56:13;;;;;;;0.70;0.55;;;17.00;84.80;;;;;;20742661;28;20048;-62
2023/04/18 11:06:14;;;;;;;2.15;0.80;;;17.60;81.60;;;;;;20741351;28;20053;-55
2023/04/18 11:16:32;;;;;;;3.47;3.10;;;16.60;82.70;;;;;;20738966;28;20041;-62
2023/04/18 11:26:37;;;;;;;4.00;3.30;;;15.40;89.60;;;;;;20692719;28;20042;-63
2023/04/18 11:36:38;;;;;;;6.97;4.00;;;15.00;87.90;;;;;;20739046;28;20037;-50
2023/04/18 11:46:41;;;;;;;6.07;4.90;;;15.50;89.70;;;;;;20740364;28;20034;-63
2023/04/18 11:56:47;;;;;;;6.00;4.45;;;17.40;90.90;;;;;;20739395;28;20443;-55
2023/04/18 12:06:50;;;;;;;4.97;4.40;;;18.40;83.10;;;;;;20734628;28;20041;-63
2023/04/18 12:16:52;;;;;;;4.65;4.03;;;17.40;88.10;;;;;;20738323;28;20041;-53
2023/04/18 12:26:56;;;;;;;2.05;1.70;;;17.20;90.80;;;;;;20739529;28;20390;-63
2023/04/18 12:36:57;;;;;;;6.05;4.97;;;18.20;86.00;;;;;;20753222;28;20092;-65
2023/04/18 12:46:59;;;;;;;5.80;4.70;;;17.10;86.40;;;;;;20751890;28;20053;-64
2023/04/18 12:57:02;;;;;;;6.43;4.60;;;16.10;90.00;;;;;;20752836;28;20056;-64
2023/04/18 13:07:03;;;;;;;7.82;5.50;;;15.10;91.30;;;;;;20748088;28;20038;-65
2023/04/18 13:17:05;;;;;;;6.68;5.50;;;14.60;91.30;;;;;;20749996;28;20037;-56
2023/04/18 13:27:09;;;;;;;8.07;6.43;;;14.20;92.20;;;;;;20749137;28;20034;-54
2023/04/18 13:37:11;;;;;;;8.32;6.50;;;15.30;92.60;;;;;;20746691;28;20030;-66
2023/04/18 13:47:13;;;;;;;7.85;6.35;;;15.50;93.70;;;;;;20746576;28;20026;-67
2023/04/18 13:57:15;;;;;;;8.60;7.30;;;16.70;91.60;;;;;;20747164;28;20080;-67
2023/04/18 14:07:16;;;;;;;10.40;7.32;;;15.20;90.70;;;;;;20743781;28;20034;-64
2023/04/18 14:17:18;;;;;;;12.05;7.72;;;14.00;93.20;;;;;;20745108;28;20411;-63
2023/04/18 14:27:20;;;;;;;9.30;7.68;;;14.00;94.20;;;;;;20744688;28;20549;-63
2023/04/18 14:37:21;;;;;;;10.27;7.40;;;14.30;93.10;;;;;;20743824;28;20038;-64
2023/04/18 14:47:29;;;;;;;9.25;7.40;;;14.90;93.30;;;;;;20745376;28;20054;-52
2023/04/18 14:57:31;;;;;;;9.38;7.57;;;15.00;91.40;;;;;;20742484;28;20042;-65
2023/04/18 15:07:34;;;;;;;10.07;7.80;;;14.80;90.50;;;;;;20741638;28;20037;-66
2023/04/18 15:17:36;;;;;;;9.55;7.38;;;15.10;92.50;;;;;;20741519;28;20372;-55
2023/04/18 15:27:38;;;;;;;9.73;7.22;;;14.80;92.10;;;;;;20740509;28;20044;-64
2023/04/18 15:37:40;;;;;;;8.50;6.78;;;14.10;94.30;;;;;;20740028;28;20111;-63
2023/04/18 15:47:42;;;;;;;12.70;6.63;;;13.50;93.50;;;;;;20739721;28;20033;-63
2023/04/18 15:57:43;;;;;;;10.85;6.72;;;12.80;93.60;;;;;;20739270;28;20057;-64
2023/04/18 16:07:45;;;;;;;10.23;7.22;;;12.20;95.60;;;;;;20747795;28;20037;-64
2023/04/18 16:17:47;;;;;;;13.35;7.30;;;11.90;94.20;;;;;;20754644;28;20049;-62
2023/04/18 16:27:48;;;;;;;9.20;6.47;;;11.20;96.00;;;;;;20753932;28;20103;-62
2023/04/18 16:37:50;;;;;;;9.50;6.13;;;10.60;96.90;;;;;;20749319;28;20336;-62
2023/04/18 16:47:51;;;;;;;9.02;6.20;;;10.50;98.20;;;;;;20752459;28;20038;-64
2023/04/18 16:57:53;;;;;;;8.00;6.07;;;10.60;98.20;;;;;;20751728;28;20487;-62
2023/04/18 17:07:54;;;;;;;9.35;6.57;;;10.80;98.10;;;;;;20751780;28;20034;-62
2023/04/18 17:17:58;;;;;;;9.88;7.07;;;10.60;98.10;;;;;;20748862;28;20499;-62
2023/04/18 17:28:01;;;;;;;10.18;7.15;;;10.10;98.20;;;;;;20749048;28;20185;-55
2023/04/18 17:38:02;;;;;;;9.18;6.30;;;9.50;99.10;;;;;;20745665;28;20483;-54
2023/04/18 17:48:04;;;;;;;7.80;5.82;;;9.20;99.30;;;;;;20764506;28;20038;-62
2023/04/18 17:58:05;;;;;;;9.30;6.22;;;9.00;99.50;;;;;;20747098;28;20044;-55
2023/04/18 18:08:07;;;;;;;8.30;5.57;;;8.60;99.60;;;;;;20745061;28;20392;-61
2023/04/18 18:18:09;;;;;;;9.05;5.85;;;7.80;99.90;;;;;;20745585;28;20450;-56
2023/04/18 18:28:11;;;;;;;10.40;6.15;;;7.20;99.90;;;;;;20745552;28;20038;-52
2023/04/18 18:38:12;;;;;;;11.45;6.07;;;6.80;99.90;;;;;;20743525;28;20073;-61
2023/04/18 18:48:14;;;;;;;10.68;6.78;;;6.50;99.90;;;;;;20743114;28;20057;-61
2023/04/18 18:58:16;;;;;;;15.18;7.47;;;6.10;99.90;;;;;;20737475;28;20045;-54
2023/04/18 19:08:18;;;;;;;12.27;7.30;;;6.00;99.90;;;;;;20739451;28;20042;-61
2023/04/18 19:18:20;;;;;;;14.13;7.85;;;5.90;99.90;;;;;;20740491;28;20046;-61
2023/04/18 19:28:22;;;;;;;13.32;7.68;;;5.50;99.90;;;;;;20740379;28;20060;-56
2023/04/18 19:38:23;;;;;;;14.10;8.27;;;5.40;99.90;;;;;;20736130;28;20026;-54
2023/04/18 19:48:25;;;;;;;13.57;8.57;;;5.20;99.90;;;;;;20739512;28;20038;-61
2023/04/18 19:58:38;;;;;;;12.77;7.88;;;5.00;99.90;;;;;;20738352;28;20057;-55
2023/04/18 20:08:40;;;;;;;13.45;8.43;;;5.00;99.90;;;;;;20738556;28;20459;-54
2023/04/18 20:18:43;;;;;;;16.23;8.63;;;4.90;99.90;;;;;;20737835;28;20100;-52
2023/04/18 20:28:44;;;;;;;14.23;8.68;;;4.80;99.90;;;;;;20738364;28;20069;-53
2023/04/18 20:38:49;;;;;;;15.00;9.48;;;4.60;99.90;;;;;;20737578;28;20030;-54
2023/04/18 20:48:50;;;;;;;17.58;9.50;;;4.50;99.90;;;;;;20739242;28;20036;-51
2023/04/18 20:58:52;;;;;;;16.88;9.73;;;4.50;99.90;;;;;;20751502;28;20042;-53
2023/04/18 21:08:54;;;;;;;15.63;9.75;;;4.40;99.90;;;;;;20751126;28;20060;-61
2023/04/18 21:18:55;;;;;;;20.83;11.05;;;4.30;99.90;;;;;;20750012;28;20538;-54
2023/04/18 21:28:59;;;;;;;16.50;9.80;;;4.30;99.90;;;;;;20747993;28;20428;-53
2023/04/18 21:39:00;;;;;;;15.05;9.85;;;4.20;99.90;;;;;;20749745;28;20038;-52
2023/04/18 21:49:02;;;;;;;15.82;10.25;;;4.40;99.90;;;;;;20748254;28;20454;-61
2023/04/18 21:59:04;;;;;;;16.33;9.73;;;4.70;99.90;;;;;;20748107;28;20022;-50
2023/04/18 22:09:07;;;;;;;14.18;8.93;;;5.00;99.90;;;;;;20745734;28;20038;-53
2023/04/18 22:19:09;;;;;;;17.65;11.02;;;5.30;99.90;;;;;;20745806;28;20042;-61
2023/04/18 22:29:11;;;;;;;16.58;10.27;;;5.30;99.90;;;;;;20746245;28;20530;-61
2023/04/18 22:39:12;;;;;;;15.73;10.25;;;5.40;99.90;;;;;;20744798;28;20038;-61
2023/04/18 22:49:14;;;;;;;15.38;9.70;;;5.50;99.90;;;;;;20745569;28;20030;-61
2023/04/18 22:59:16;;;;;;;15.77;9.45;;;5.70;99.90;;;;;;20742960;28;20042;-61
2023/04/18 23:09:18;;;;;;;16.60;9.13;;;5.80;99.90;;;;;;20742243;28;20037;-53
2023/04/18 23:19:20;;;;;;;16.15;10.05;;;5.80;99.90;;;;;;20740512;28;20517;-53
2023/04/18 23:29:21;;;;;;;16.75;10.45;;;5.90;99.90;;;;;;20739502;28;20029;-53
2023/04/18 23:39:25;;;;;;;18.55;11.18;;;5.80;99.90;;;;;;20740549;28;20038;-53
2023/04/18 23:49:27;;;;;;;16.52;10.32;;;5.80;99.90;;;;;;20740368;28;20088;-53
2023/04/18 23:59:28;;;;;;;14.93;9.88;;;5.80;99.90;;;;;;20739594;28;20041;-50
